Decoded Metar for KMHL ( in ) (IATA:) | Meteo·Mobile Aviation Weather
aviador You're here:

KMHL Decoded Metar

in
Report Time2018-11-21 01:15:00
UTC Time2018-11-21 01:27:02
Flight Rules vfr VFR
Wind200° at 04 kt
W.Decomp.*RWY 18: 3.8 kt HW 1.4 kt RCW
RWY 27: 1.4 kt HW 3.8 kt LCW
W.Rank200° ranks 1
Current wind is below 200° avg. (8.2)
Visibility9999 m
Phenomena:N/A
Clouds:N/A
Expected CloudBase > 1,600 ft AGL from Temp-Dew spread
CeilingNone
Temp01°C
Dew Point-3°C (75% RH)
AAT-2.8°C
QNH1025 hPa
Raw Report
KMHL 210115Z AUTO 20004KT 10SM CLR 01/M03 A3026 RMK AO2=

Extra information for KMHL:More info

Social comments